Kimball, Nebraska
Current Conditions -  °F | °C
As of 12:15 AM on Wednesday 22 Oct 2014 (Local Time) from KIBM Reporting Station
Broken Clouds Broken Clouds  
Wind Chill: 56°   Ceiling: 12000
Heat Index: 56°   Visibility: 10mi
Dew Point: 46°   Wind: 24mph
Humidity: 71%   Direction: 300°WNW
Pressure: 29.94"   Gusts: 31mph
Location:  41.24°N, 103.66°W
Report Text: KIBM 220615Z AUTO 30021G27KT 10SM SCT090 BKN120 13/08 A2994 RMK AO2 T01310080
Loading
Personal Weather Stations






























Interactive Weather Map
Tropical Storm Tracking
New forecast layout! Learn more

10-Day Weather Forecast

Advertisements
Track Severe Weather on mobile